Tisbury, United Kingdom
Current Conditions -  °F | °C
As of 12:50 AM on Saturday 29 Nov 2014 (Local Time) from EGDM Reporting Station
Haze Haze  
Wind Chill: 50°   Ceiling: 11000
Heat Index: 50°   Visibility: 6mi
Dew Point: 48°   Wind: 12mph
Humidity: 94%   Direction: 80°E
Pressure: 29.68"   Gusts: NA
Location:  51.06°N, 2.08°W
Report Text: EGDM 290050Z AUTO 08010KT 9000 BR FEW080/// OVC110/// 10/09 Q1005 RERA
Loading
Personal Weather Stations






























Interactive Weather Map New forecast layout! Learn more

10-Day Weather Forecast

Advertisements
Track Severe Weather on mobile